FAGL weather

Groblersdal Kob Airport
Groblersdal, Mpumalanga, South Africa

Public forecast

Using degrees Celsius for public forecast. Weather courtesy of forecast.io.

METAR (pilot weather report)

Report is more than 2 hours old.

Closest report is Wonderboom Airport, 69.8 nm (129.3 km) WSW. Retrieved 2019/05/21 11:00 UTC (4 hours ago):

FAWB 211100Z VRB04KT CAVOK 27/02 Q1022

TAF (pilot weather forecast)

Forecast is more than 12 hours old.

Closest forecast is Wonderboom Airport, 69.8 nm (129.3 km) WSW. Retrieved 2019/01/10 10:00 UTC (4 months ago):

TAF FAWB 101000Z 1010/1018 30007KT CAVOK BECMG 1014/1016 SCT035 PROB30 TEMPO 1016/1018 -TSRA FEW040CB TX31/1013Z TN26/1018Z